Time;durP1;ratioP1;P1;durP2;ratioP2;P2;SDS_P1;SDS_P2;PMS_P1;PMS_P2;Temp;Humidity;BMP_temperature;BMP_pressure;BME280_temperature;BME280_humidity;BME280_pressure;Samples;Min_cycle;Max_cycle;Signal;HPM_P1;HPM_P2
2022/04/21 00:00:43;;;;;;;21.98;12.63;;;4.70;54.90;;;;;;5018907;28;20039;-73
2022/04/21 00:03:09;;;;;;;21.30;12.38;;;4.70;55.40;;;;;;5043316;28;20106;-73
2022/04/21 00:05:36;;;;;;;20.58;11.82;;;4.70;55.10;;;;;;5013894;28;20029;-73
2022/04/21 00:08:03;;;;;;;21.17;11.77;;;4.70;55.70;;;;;;5014448;28;20038;-73
2022/04/21 00:10:30;;;;;;;22.00;12.20;;;4.70;55.60;;;;;;5016717;28;20037;-73
2022/04/21 00:12:57;;;;;;;22.13;13.00;;;4.60;55.60;;;;;;5021184;28;20038;-72
2022/04/21 00:15:25;;;;;;;20.35;11.98;;;4.60;55.70;;;;;;5027486;28;20041;-71
2022/04/21 00:17:51;;;;;;;25.73;13.98;;;4.60;55.70;;;;;;5030472;28;20129;-73
2022/04/21 00:20:17;;;;;;;21.15;12.75;;;4.60;56.00;;;;;;5017277;28;20057;-71
2022/04/21 00:25:29;;;;;;;19.15;10.60;;;4.50;56.00;;;;;;5035292;28;20040;-73
2022/04/21 00:27:56;;;;;;;20.05;10.50;;;4.40;56.10;;;;;;5031425;28;20040;-72
2022/04/21 00:30:22;;;;;;;23.85;11.48;;;4.40;56.40;;;;;;5030842;28;20033;-73
2022/04/21 00:32:49;;;;;;;18.00;10.05;;;4.40;56.50;;;;;;5030762;28;20141;-71
2022/04/21 00:35:16;;;;;;;17.75;10.13;;;4.30;56.80;;;;;;5005268;28;20037;-71
2022/04/21 00:38:01;;;;;;;19.88;11.95;;;4.30;56.70;;;;;;5041194;28;20033;-73
2022/04/21 00:40:29;;;;;;;23.00;12.07;;;4.30;57.10;;;;;;5017438;28;20029;-73
2022/04/21 00:42:56;;;;;;;18.20;11.02;;;4.30;56.90;;;;;;5032489;28;20060;-73
2022/04/21 00:45:23;;;;;;;23.38;13.18;;;4.20;56.80;;;;;;5031735;28;20043;-73
2022/04/21 00:47:51;;;;;;;17.92;9.88;;;4.20;56.80;;;;;;5028988;28;20069;-73
2022/04/21 00:50:22;;;;;;;19.33;9.55;;;4.20;56.80;;;;;;5050818;28;20055;-73
2022/04/21 00:52:51;;;;;;;19.30;11.93;;;4.20;56.80;;;;;;5045509;28;20510;-72
2022/04/21 00:55:17;;;;;;;18.95;11.13;;;4.20;56.90;;;;;;5016963;28;20030;-71
2022/04/21 00:57:43;;;;;;;;;;;4.20;57.10;;;;;;5016252;28;20104;-73
2022/04/21 01:00:12;;;;;;;21.85;12.45;;;4.20;56.40;;;;;;5038794;28;19916;-71
2022/04/21 01:05:31;;;;;;;23.92;12.55;;;4.10;56.80;;;;;;5023696;28;20497;-74
2022/04/21 01:08:17;;;;;;;25.55;14.15;;;4.10;57.00;;;;;;5025844;28;20044;-72
2022/04/21 01:10:43;;;;;;;21.98;12.77;;;4.10;57.30;;;;;;5026281;28;20629;-73
2022/04/21 01:13:10;;;;;;;;;;;4.00;56.60;;;;;;5050570;28;20470;-73
2022/04/21 01:15:39;;;;;;;19.00;12.02;;;4.00;56.50;;;;;;5048560;28;19935;-72
2022/04/21 01:18:07;;;;;;;21.33;11.80;;;3.90;56.90;;;;;;5022821;28;20436;-71
2022/04/21 01:20:33;;;;;;;20.63;12.30;;;3.90;57.30;;;;;;5017861;28;20072;-72
2022/04/21 01:22:59;;;;;;;25.23;12.98;;;3.80;57.00;;;;;;5020228;28;20059;-73
2022/04/21 01:25:25;;;;;;;22.67;12.30;;;3.80;57.60;;;;;;5031808;28;20505;-71
2022/04/21 01:28:11;;;;;;;22.92;12.68;;;3.80;57.70;;;;;;5020435;28;20049;-71
2022/04/21 01:30:38;;;;;;;23.85;12.88;;;3.70;57.90;;;;;;5017032;28;20041;-71
2022/04/21 01:33:05;;;;;;;21.35;11.18;;;3.70;57.90;;;;;;5016666;28;20046;-71
2022/04/21 01:35:31;;;;;;;16.27;10.43;;;3.60;57.50;;;;;;5021419;28;20032;-73
2022/04/21 01:43:26;;;;;;;17.70;10.95;;;3.50;58.10;;;;;;5029747;28;20095;-73
2022/04/21 01:45:52;;;;;;;18.73;11.35;;;3.50;57.80;;;;;;5003865;28;20029;-71
2022/04/21 01:48:19;;;;;;;16.95;10.73;;;3.50;57.60;;;;;;5032677;28;20036;-73
2022/04/21 01:50:45;;;;;;;18.42;11.88;;;3.50;57.60;;;;;;5034535;28;20033;-73
2022/04/21 01:53:11;;;;;;;21.08;11.40;;;3.50;57.60;;;;;;5028778;28;20040;-71
2022/04/21 01:55:37;;;;;;;19.83;11.75;;;3.50;57.50;;;;;;5008739;28;20517;-71
2022/04/21 01:58:03;;;;;;;19.67;11.02;;;3.50;57.70;;;;;;5040701;28;20029;-72
2022/04/21 02:00:29;;;;;;;22.45;11.40;;;3.40;57.50;;;;;;5049043;28;20509;-72
2022/04/21 02:02:56;;;;;;;23.70;10.13;;;3.40;57.40;;;;;;5034058;28;20072;-73
2022/04/21 02:05:22;;;;;;;17.48;9.35;;;3.40;57.40;;;;;;5024598;28;20029;-75
2022/04/21 02:07:48;;;;;;;;;;;3.40;57.30;;;;;;5019223;28;20037;-73
2022/04/21 02:10:17;;;;;;;18.85;9.77;;;3.40;56.90;;;;;;5032415;28;20305;-71
2022/04/21 02:12:45;;;;;;;18.77;10.32;;;3.40;56.90;;;;;;5030277;28;20033;-72
2022/04/21 02:15:12;;;;;;;20.20;10.85;;;3.50;57.00;;;;;;5016305;28;20117;-73
2022/04/21 02:17:39;;;;;;;17.73;10.95;;;3.50;57.00;;;;;;5008755;28;20504;-72
2022/04/21 02:20:08;;;;;;;18.33;10.32;;;3.60;57.90;;;;;;5032997;28;20033;-71
2022/04/21 02:22:37;;;;;;;24.10;11.50;;;3.60;57.20;;;;;;5024767;28;20040;-72
2022/04/21 02:27:55;;;;;;;22.20;11.15;;;3.50;57.50;;;;;;5028175;28;20041;-73
2022/04/21 02:30:21;;;;;;;21.33;11.68;;;3.60;57.40;;;;;;5045915;28;20036;-72
2022/04/21 02:32:48;;;;;;;22.60;11.63;;;3.60;57.40;;;;;;5034170;28;20048;-72
2022/04/21 02:35:15;;;;;;;;;;;3.60;57.50;;;;;;5034497;28;20039;-71
2022/04/21 02:37:59;;;;;;;18.83;11.15;;;3.60;56.90;;;;;;5033198;28;20424;-72
2022/04/21 02:40:26;;;;;;;23.63;11.63;;;3.60;57.50;;;;;;5018015;28;20030;-73
2022/04/21 02:42:52;;;;;;;22.52;11.30;;;3.60;57.50;;;;;;5033729;28;20061;-71
2022/04/21 02:45:18;;;;;;;20.25;10.98;;;3.60;57.50;;;;;;4996690;28;20034;-73
2022/04/21 02:47:46;;;;;;;21.38;10.75;;;3.70;57.70;;;;;;5006039;28;20026;-71
2022/04/21 02:50:15;;;;;;;39.88;12.73;;;3.70;57.70;;;;;;5020429;28;20072;-73
2022/04/21 02:52:43;;;;;;;25.40;12.63;;;3.70;57.80;;;;;;5032488;28;20068;-71
2022/04/21 02:57:56;;;;;;;40.70;14.38;;;3.80;57.80;;;;;;5000207;28;20173;-73
2022/04/21 03:00:23;;;;;;;43.13;12.40;;;3.80;57.90;;;;;;5004121;28;20080;-72
2022/04/21 03:02:49;;;;;;;42.03;12.68;;;3.80;58.20;;;;;;5013649;28;20489;-72
2022/04/21 03:05:16;;;;;;;53.05;12.18;;;3.70;58.30;;;;;;4988747;28;20080;-73
2022/04/21 03:07:43;;;;;;;28.38;12.02;;;3.80;58.30;;;;;;5007584;28;20034;-71
2022/04/21 03:10:09;;;;;;;33.70;10.95;;;3.70;58.40;;;;;;5019184;28;20067;-72
2022/04/21 03:12:36;;;;;;;39.75;10.50;;;3.80;58.60;;;;;;5000828;28;20037;-72
2022/04/21 03:15:02;;;;;;;29.92;9.60;;;3.80;58.60;;;;;;4996621;28;20498;-71
2022/04/21 03:17:29;;;;;;;50.15;8.93;;;3.80;58.10;;;;;;5013317;28;20048;-74
2022/04/21 03:19:55;;;;;;;45.53;9.93;;;3.80;58.70;;;;;;5012647;28;20561;-73
2022/04/21 03:25:10;;;;;;;65.32;10.02;;;3.80;58.40;;;;;;5029394;28;20087;-71
2022/04/21 03:27:36;;;;;;;66.25;9.73;;;3.70;58.60;;;;;;5030495;28;20076;-71
2022/04/21 03:30:06;;;;;;;92.10;10.00;;;3.70;58.60;;;;;;5002584;28;20033;-71
2022/04/21 03:32:32;;;;;;;30.48;9.70;;;3.70;59.30;;;;;;5030189;28;20056;-71
2022/04/21 03:35:00;;;;;;;65.68;9.57;;;3.70;58.80;;;;;;5031774;28;20586;-72
2022/04/21 03:37:27;;;;;;;45.95;10.15;;;3.70;59.30;;;;;;5022667;28;20057;-73
2022/04/21 03:39:53;;;;;;;38.65;11.05;;;3.70;59.30;;;;;;5009075;28;20384;-73
2022/04/21 03:42:40;;;;;;;43.13;11.95;;;3.70;58.80;;;;;;5016164;28;20139;-72
2022/04/21 03:45:07;;;;;;;49.25;12.05;;;3.70;59.50;;;;;;5012272;28;20044;-73
2022/04/21 03:47:33;;;;;;;27.88;13.02;;;3.60;59.40;;;;;;5036117;28;20037;-72
2022/04/21 03:50:00;;;;;;;44.05;11.70;;;3.60;59.50;;;;;;5023162;28;20037;-73
2022/04/21 03:52:26;;;;;;;25.90;10.10;;;3.60;59.60;;;;;;5029764;28;20045;-71
2022/04/21 03:54:52;;;;;;;23.90;10.65;;;3.60;59.60;;;;;;5022739;28;20072;-72
2022/04/21 03:57:18;;;;;;;27.08;11.50;;;3.60;59.60;;;;;;5026234;28;20129;-72
2022/04/21 03:59:44;;;;;;;42.35;14.32;;;3.60;59.60;;;;;;5021779;28;20116;-74
2022/04/21 04:02:12;;;;;;;36.97;13.07;;;3.60;59.60;;;;;;5051587;28;20478;-73
2022/04/21 04:04:39;;;;;;;22.25;10.32;;;3.50;59.80;;;;;;5035206;28;20036;-72
2022/04/21 04:12:38;;;;;;;21.52;9.93;;;3.50;59.10;;;;;;5048564;28;20047;-73
2022/04/21 04:15:07;;;;;;;31.65;11.65;;;3.50;59.50;;;;;;5029311;28;20427;-73
2022/04/21 04:17:34;;;;;;;31.30;11.35;;;3.50;59.50;;;;;;5028118;28;20091;-71
2022/04/21 04:20:00;;;;;;;21.88;10.65;;;3.50;59.70;;;;;;5017874;28;20219;-71
2022/04/21 04:22:26;;;;;;;;;;;3.50;59.20;;;;;;5032302;28;20105;-72
2022/04/21 04:24:55;;;;;;;24.60;10.43;;;3.50;58.70;;;;;;5049126;28;20337;-73
2022/04/21 04:27:22;;;;;;;25.30;12.57;;;3.50;59.30;;;;;;5044578;28;20520;-72
2022/04/21 04:29:48;;;;;;;26.05;12.20;;;3.50;59.20;;;;;;5042211;28;20127;-73
2022/04/21 04:32:15;;;;;;;27.92;12.63;;;3.60;59.40;;;;;;5020310;28;20068;-71
2022/04/21 04:34:43;;;;;;;27.05;12.70;;;3.60;58.80;;;;;;5052288;28;20044;-72
2022/04/21 04:37:09;;;;;;;28.90;15.75;;;3.60;59.20;;;;;;5043825;28;20029;-72
2022/04/21 04:39:35;;;;;;;27.27;14.80;;;3.70;58.90;;;;;;5053642;28;20032;-73
2022/04/21 04:42:17;;;;;;;27.50;14.32;;;3.70;59.30;;;;;;5034864;28;20052;-72
2022/04/21 04:47:48;;;;;;;24.80;12.68;;;3.80;59.30;;;;;;5027631;28;20040;-72
2022/04/21 04:50:14;;;;;;;23.10;12.32;;;3.70;59.20;;;;;;5016620;28;20033;-72
2022/04/21 04:52:40;;;;;;;22.20;12.60;;;3.70;59.20;;;;;;5022733;28;20051;-71
2022/04/21 04:55:26;;;;;;;25.58;13.60;;;3.70;59.40;;;;;;5047568;28;20045;-73
2022/04/21 04:57:53;;;;;;;26.73;14.80;;;3.70;59.50;;;;;;5035324;28;20445;-73
2022/04/21 05:00:19;;;;;;;21.83;11.98;;;3.80;59.40;;;;;;5038963;28;20441;-72
2022/04/21 05:02:45;;;;;;;23.40;12.73;;;3.80;59.00;;;;;;5017896;28;20044;-73
2022/04/21 05:05:11;;;;;;;25.48;12.68;;;3.80;59.40;;;;;;5050794;28;20044;-71
2022/04/21 05:07:39;;;;;;;23.30;13.65;;;3.90;59.50;;;;;;5033551;28;20044;-72
2022/04/21 05:10:07;;;;;;;28.08;14.40;;;3.90;59.40;;;;;;5046499;28;20494;-72
2022/04/21 05:12:33;;;;;;;29.98;15.35;;;4.00;59.20;;;;;;5053567;28;20037;-73
2022/04/21 05:15:00;;;;;;;26.20;14.05;;;4.00;59.30;;;;;;5030130;28;20040;-73
2022/04/21 05:17:27;;;;;;;27.42;16.63;;;4.10;59.20;;;;;;5024115;28;20037;-71
2022/04/21 05:19:54;;;;;;;29.90;16.98;;;4.10;59.10;;;;;;5030821;28;20487;-71
2022/04/21 05:22:47;;;;;;;26.58;15.15;;;4.20;58.60;;;;;;5022497;28;20041;-73
2022/04/21 05:25:13;;;;;;;21.63;13.18;;;4.30;59.20;;;;;;5035853;28;20167;-72
2022/04/21 05:27:41;;;;;;;27.23;16.33;;;4.30;58.60;;;;;;5049587;28;20029;-71
2022/04/21 05:32:58;;;;;;;33.88;17.67;;;4.50;58.80;;;;;;5031958;28;20572;-72
2022/04/21 05:35:25;;;;;;;26.98;15.57;;;4.60;58.70;;;;;;5038340;28;20036;-74
2022/04/21 05:37:51;;;;;;;30.55;14.75;;;4.60;58.20;;;;;;5030817;28;20033;-72
2022/04/21 05:40:18;;;;;;;31.13;16.15;;;4.70;58.60;;;;;;5020977;28;20033;-73
2022/04/21 05:42:49;;;;;;;25.15;14.27;;;4.60;59.00;;;;;;5052733;28;20110;-72
2022/04/21 05:45:16;;;;;;;42.85;21.35;;;4.70;59.00;;;;;;5015477;28;20033;-72
2022/04/21 05:47:44;;;;;;;30.65;16.73;;;4.80;58.40;;;;;;5018666;28;20076;-71
2022/04/21 05:50:12;;;;;;;24.23;14.32;;;4.90;58.80;;;;;;5034870;28;20044;-71
2022/04/21 05:52:40;;;;;;;18.92;12.00;;;5.00;58.70;;;;;;5034299;28;20486;-73
2022/04/21 05:55:07;;;;;;;24.38;15.93;;;5.00;58.70;;;;;;5032900;28;20041;-72
2022/04/21 05:57:35;;;;;;;18.30;11.43;;;5.10;58.70;;;;;;5035215;28;20143;-72
2022/04/21 06:00:01;;;;;;;18.73;9.75;;;5.10;58.90;;;;;;5051121;28;20029;-73
2022/04/21 06:02:27;;;;;;;16.65;10.00;;;5.20;58.80;;;;;;5051023;28;20509;-73
2022/04/21 06:04:59;;;;;;;18.00;11.93;;;5.30;58.90;;;;;;5033795;28;20033;-72
2022/04/21 06:07:25;;;;;;;15.43;9.35;;;5.40;58.80;;;;;;5043123;28;20501;-72
2022/04/21 06:09:51;;;;;;;18.02;10.60;;;5.50;58.70;;;;;;5016835;28;20088;-72
2022/04/21 06:12:17;;;;;;;18.98;11.40;;;5.60;58.80;;;;;;5043833;28;20029;-71
2022/04/21 06:14:45;;;;;;;21.83;13.57;;;5.60;58.70;;;;;;5033424;28;20083;-71
2022/04/21 06:17:11;;;;;;;18.85;10.88;;;5.80;58.70;;;;;;5041204;28;20045;-74
2022/04/21 06:19:37;;;;;;;;;;;5.80;58.70;;;;;;5030509;28;20086;-73
2022/04/21 06:22:03;;;;;;;33.55;13.98;;;6.00;58.30;;;;;;5050686;28;19920;-74
2022/04/21 06:24:30;;;;;;;16.63;10.27;;;6.00;57.80;;;;;;5046029;28;20103;-72
2022/04/21 06:26:56;;;;;;;20.00;11.60;;;6.10;58.60;;;;;;5032900;28;20471;-72
2022/04/21 06:29:22;;;;;;;18.80;10.35;;;6.20;58.70;;;;;;5022344;28;20029;-72
2022/04/21 06:31:48;;;;;;;19.05;10.30;;;6.30;59.00;;;;;;5042760;28;20049;-72
2022/04/21 06:34:14;;;;;;;15.68;9.13;;;6.30;59.00;;;;;;5032981;28;20401;-73
2022/04/21 06:36:40;;;;;;;16.60;10.05;;;6.40;58.90;;;;;;5041008;28;20425;-71
2022/04/21 06:39:06;;;;;;;16.90;10.73;;;6.50;59.10;;;;;;5050545;28;20040;-72
2022/04/21 06:41:33;;;;;;;16.35;10.10;;;6.70;58.90;;;;;;5051258;28;20065;-74
2022/04/21 06:49:28;;;;;;;16.63;9.73;;;7.20;58.00;;;;;;5030864;28;20041;-73
2022/04/21 06:51:54;;;;;;;18.98;9.98;;;7.50;57.70;;;;;;5007326;28;20121;-73
2022/04/21 06:54:22;;;;;;;16.13;9.63;;;7.70;57.50;;;;;;5029953;28;20033;-72
2022/04/21 06:56:48;;;;;;;22.10;11.00;;;8.00;57.00;;;;;;5008063;28;20042;-72
2022/04/21 06:59:16;;;;;;;21.17;12.23;;;8.20;57.00;;;;;;5030407;28;20033;-72
2022/04/21 07:01:46;;;;;;;16.60;10.73;;;8.60;56.40;;;;;;5010966;28;20034;-73
2022/04/21 07:04:31;;;;;;;17.50;11.07;;;8.90;55.90;;;;;;5011365;28;20065;-74
2022/04/21 07:06:58;;;;;;;25.05;14.20;;;9.20;55.50;;;;;;5002420;28;20053;-73
2022/04/21 07:09:25;;;;;;;19.55;12.10;;;9.30;55.40;;;;;;5030495;28;20037;-74
2022/04/21 07:11:51;;;;;;;18.77;11.32;;;9.30;55.40;;;;;;5009980;28;20034;-72
2022/04/21 07:14:17;;;;;;;;;;;9.30;55.30;;;;;;5024771;28;20037;-72
2022/04/21 07:16:43;;;;;;;18.13;11.77;;;9.40;55.50;;;;;;5012107;28;19921;-72
2022/04/21 07:19:09;;;;;;;22.20;13.50;;;9.40;55.30;;;;;;5031173;28;20095;-73
2022/04/21 07:21:35;;;;;;;47.42;17.67;;;9.50;55.10;;;;;;4981154;28;20383;-73
2022/04/21 07:24:01;;;;;;;23.17;13.98;;;9.50;55.00;;;;;;5013823;28;20044;-73
2022/04/21 07:26:28;;;;;;;;;;;9.60;54.80;;;;;;5013133;28;20561;-73
2022/04/21 07:28:55;;;;;;;22.20;12.63;;;9.60;55.00;;;;;;5030875;28;19917;-73
2022/04/21 07:31:21;;;;;;;;;;;9.70;54.70;;;;;;5029156;28;20029;-72
2022/04/21 07:33:47;;;;;;;18.33;9.80;;;9.70;54.70;;;;;;5013794;28;19918;-73
2022/04/21 07:36:13;;;;;;;15.88;9.50;;;9.70;54.60;;;;;;5022416;28;20030;-74
2022/04/21 07:38:40;;;;;;;16.63;10.93;;;9.80;54.60;;;;;;5013330;28;20034;-72
2022/04/21 07:41:06;;;;;;;19.67;10.95;;;9.80;54.80;;;;;;4995817;28;20049;-72
2022/04/21 07:43:33;;;;;;;15.32;9.80;;;9.80;54.60;;;;;;5030002;28;20512;-74
2022/04/21 07:45:59;;;;;;;15.02;10.23;;;9.80;54.40;;;;;;5027127;28;20030;-72
2022/04/21 07:49:44;;;;;;;15.23;9.88;;;9.90;54.50;;;;;;5030368;28;20029;-73
2022/04/21 07:51:11;;;;;;;14.98;9.38;;;9.90;54.50;;;;;;5039921;28;20044;-73
2022/04/21 07:53:37;;;;;;;14.60;9.38;;;10.00;54.20;;;;;;5030685;28;20022;-72
2022/04/21 07:56:04;;;;;;;15.80;10.38;;;10.10;54.00;;;;;;5036678;28;20033;-74
2022/04/21 07:58:30;;;;;;;16.20;9.43;;;10.10;53.40;;;;;;5021065;28;20047;-74
2022/04/21 08:00:56;;;;;;;29.92;16.15;;;10.20;53.90;;;;;;5019109;28;20059;-72
2022/04/21 08:03:23;;;;;;;17.58;10.27;;;10.30;53.80;;;;;;5031282;28;20033;-73
2022/04/21 08:05:49;;;;;;;23.60;12.90;;;10.40;53.50;;;;;;5052204;28;20029;-72
2022/04/21 08:08:16;;;;;;;16.30;9.98;;;10.50;53.40;;;;;;5019701;28;20053;-73
2022/04/21 08:10:43;;;;;;;15.68;10.45;;;10.60;52.90;;;;;;5051938;28;20040;-73
2022/04/21 08:13:09;;;;;;;15.07;9.27;;;10.70;52.90;;;;;;5018560;28;20087;-74
2022/04/21 08:15:36;;;;;;;16.58;9.63;;;10.90;52.60;;;;;;5032346;28;20045;-72
2022/04/21 08:18:05;;;;;;;13.82;9.32;;;11.00;52.20;;;;;;5018753;28;20486;-73
2022/04/21 08:20:38;;;;;;;15.55;10.23;;;11.60;51.60;;;;;;5016293;28;20478;-73
2022/04/21 08:23:04;;;;;;;15.25;8.93;;;12.00;50.80;;;;;;5037382;28;20494;-72
2022/04/21 08:33:46;;;;;;;14.75;9.25;;;12.60;50.30;;;;;;5038269;28;20059;-74
2022/04/21 08:36:12;;;;;;;15.10;9.63;;;12.70;50.30;;;;;;5023212;28;20037;-74
2022/04/21 08:38:38;;;;;;;14.50;10.02;;;12.70;50.10;;;;;;5053663;28;20095;-73
2022/04/21 08:41:11;;;;;;;15.15;9.60;;;12.90;50.00;;;;;;5032604;28;20044;-73
2022/04/21 08:43:37;;;;;;;12.70;8.18;;;13.10;49.40;;;;;;5049106;28;20136;-73
2022/04/21 08:46:04;;;;;;;12.77;8.25;;;13.40;49.10;;;;;;5052555;28;20037;-73
2022/04/21 08:48:31;;;;;;;12.10;7.45;;;13.70;47.70;;;;;;5022755;28;20033;-72
2022/04/21 08:50:58;;;;;;;12.52;7.40;;;13.80;47.50;;;;;;5032916;28;20029;-73
2022/04/21 08:53:25;;;;;;;15.30;7.97;;;13.90;46.90;;;;;;5021440;28;20033;-74
2022/04/21 08:55:52;;;;;;;15.60;7.45;;;13.90;46.80;;;;;;5009715;28;20030;-73
2022/04/21 08:58:20;;;;;;;10.50;6.38;;;14.00;46.40;;;;;;5031902;28;20041;-73
2022/04/21 09:00:46;;;;;;;9.70;5.85;;;14.10;46.00;;;;;;5030143;28;20506;-74
2022/04/21 09:03:14;;;;;;;9.65;6.03;;;14.30;45.80;;;;;;5019075;28;20041;-73
2022/04/21 09:05:41;;;;;;;10.77;6.35;;;14.70;45.30;;;;;;5036137;28;20029;-73
2022/04/21 09:08:19;;;;;;;10.73;6.22;;;15.40;44.10;;;;;;5023601;28;20034;-74
2022/04/21 09:10:45;;;;;;;11.25;6.93;;;16.10;43.00;;;;;;5045951;28;20021;-73
2022/04/21 09:13:11;;;;;;;8.93;5.78;;;16.60;42.60;;;;;;5045838;28;20037;-74
2022/04/21 09:15:38;;;;;;;12.95;6.28;;;16.90;41.30;;;;;;5026436;28;20511;-73
2022/04/21 09:18:22;;;;;;;;;;;16.70;40.80;;;;;;5053128;28;20033;-73
2022/04/21 09:20:53;;;;;;;8.35;5.63;;;17.70;42.10;;;;;;5027039;28;19924;-74
2022/04/21 09:23:19;;;;;;;9.57;6.00;;;19.40;37.20;;;;;;5027425;28;20642;-73
2022/04/21 09:25:49;;;;;;;9.98;5.22;;;20.80;36.00;;;;;;5033898;28;20088;-74
2022/04/21 09:28:33;;;;;;;10.23;6.00;;;21.90;34.10;;;;;;5053017;28;20029;-73
2022/04/21 09:31:01;;;;;;;9.45;5.00;;;23.30;32.90;;;;;;5051164;28;20044;-75
2022/04/21 09:33:30;;;;;;;6.93;4.32;;;24.20;31.20;;;;;;5046094;28;20105;-74
2022/04/21 09:36:16;;;;;;;7.93;4.93;;;25.10;29.50;;;;;;5041097;28;20036;-74
2022/04/21 09:38:42;;;;;;;7.00;4.32;;;26.30;29.20;;;;;;5035198;28;20039;-74
2022/04/21 09:41:11;;;;;;;6.50;3.55;;;27.30;27.80;;;;;;5034351;28;20033;-74
2022/04/21 09:43:41;;;;;;;8.40;4.53;;;28.20;26.20;;;;;;5035092;28;20099;-74
2022/04/21 09:46:27;;;;;;;8.55;4.55;;;29.00;24.90;;;;;;5049425;28;20033;-74
2022/04/21 09:48:54;;;;;;;7.88;4.70;;;30.00;25.00;;;;;;5013900;28;20033;-75
2022/04/21 09:51:40;;;;;;;6.72;4.10;;;30.70;22.50;;;;;;5023953;28;20037;-75
2022/04/21 09:54:06;;;;;;;8.80;6.47;;;31.50;22.30;;;;;;5034840;28;20052;-74
2022/04/21 09:56:35;;;;;;;7.25;3.53;;;32.30;20.40;;;;;;5050319;28;20386;-73
2022/04/21 09:59:21;;;;;;;6.72;4.15;;;32.90;19.00;;;;;;5053012;28;20033;-74
2022/04/21 10:01:50;;;;;;;7.15;3.40;;;32.50;19.50;;;;;;5013696;28;20121;-75
2022/04/21 10:04:20;;;;;;;7.40;3.25;;;32.10;19.30;;;;;;5021812;28;20120;-73
2022/04/21 10:06:47;;;;;;;6.15;3.25;;;31.90;18.90;;;;;;5021109;28;20037;-75
2022/04/21 10:12:00;;;;;;;6.43;3.05;;;33.00;16.60;;;;;;5052284;28;20091;-73
2022/04/21 10:14:28;;;;;;;6.15;3.15;;;33.50;16.30;;;;;;5024711;28;20490;-73
2022/04/21 10:16:54;;;;;;;7.00;4.63;;;34.20;15.60;;;;;;5042935;28;20071;-74
2022/04/21 10:19:21;;;;;;;6.80;3.45;;;34.70;15.90;;;;;;5026095;28;20029;-74
2022/04/21 10:22:07;;;;;;;5.32;2.90;;;35.30;15.70;;;;;;5048580;28;20033;-75
2022/04/21 10:24:39;;;;;;;5.00;2.77;;;35.80;14.90;;;;;;5000615;28;20406;-75
2022/04/21 10:30:30;;;;;;;5.32;2.97;;;36.00;14.30;;;;;;5051646;28;20103;-73
2022/04/21 10:33:01;;;;;;;5.47;3.20;;;35.90;13.80;;;;;;5026656;28;20033;-74
2022/04/21 10:35:47;;;;;;;4.60;2.60;;;35.70;13.70;;;;;;5024065;28;20037;-74
2022/04/21 10:38:31;;;;;;;4.72;2.50;;;35.50;13.80;;;;;;5026988;28;20041;-74
2022/04/21 10:41:16;;;;;;;7.28;3.50;;;35.00;14.90;;;;;;5029842;28;20037;-73
2022/04/21 10:44:02;;;;;;;5.82;3.05;;;33.90;14.50;;;;;;5040512;28;20060;-73
2022/04/21 10:46:30;;;;;;;6.55;3.78;;;32.00;14.80;;;;;;5029345;28;20123;-73
2022/04/21 10:48:58;;;;;;;7.57;3.55;;;30.80;14.80;;;;;;5050541;28;20078;-73
2022/04/21 10:57:36;;;;;;;10.70;3.05;;;27.30;18.30;;;;;;5049861;28;20051;-73
2022/04/21 11:00:05;;;;;;;5.22;2.72;;;26.60;18.80;;;;;;5050793;28;20024;-73
2022/04/21 11:03:01;;;;;;;9.57;2.58;;;26.10;19.30;;;;;;5050423;28;20407;-73
2022/04/21 11:05:36;;;;;;;5.15;2.85;;;25.20;20.00;;;;;;5051410;28;20048;-74
2022/04/21 11:08:10;;;;;;;5.68;2.90;;;24.50;20.80;;;;;;5039109;28;20033;-74
2022/04/21 11:10:43;;;;;;;4.40;2.28;;;24.00;21.30;;;;;;5027544;28;20026;-73
2022/04/21 11:14:05;;;;;;;5.88;2.83;;;23.60;21.50;;;;;;5044176;28;20040;-74
2022/04/21 11:16:50;;;;;;;4.50;2.55;;;23.20;22.10;;;;;;5035160;28;20383;-75
2022/04/21 11:19:54;;;;;;;9.05;2.78;;;22.80;22.40;;;;;;5051120;28;20033;-73
2022/04/21 11:22:42;;;;;;;10.15;3.05;;;22.30;23.10;;;;;;5046824;28;20041;-73
2022/04/21 11:25:08;;;;;;;4.85;2.20;;;22.00;23.70;;;;;;5026868;28;20041;-74
2022/04/21 11:27:42;;;;;;;7.43;3.90;;;21.50;24.30;;;;;;5051048;28;20068;-73
2022/04/21 11:30:13;;;;;;;6.18;3.08;;;21.10;25.40;;;;;;5020741;28;20041;-74
2022/04/21 11:32:39;;;;;;;5.20;2.83;;;20.60;26.00;;;;;;5017069;28;20159;-73
2022/04/21 11:38:16;;;;;;;5.70;2.67;;;20.00;26.80;;;;;;5051324;28;20041;-73
2022/04/21 11:40:44;;;;;;;5.18;2.70;;;19.70;26.90;;;;;;5045907;28;20037;-74
2022/04/21 11:43:29;;;;;;;7.30;2.50;;;19.50;27.30;;;;;;5049988;28;20072;-73
2022/04/21 11:46:18;;;;;;;5.03;2.58;;;19.40;27.20;;;;;;5021690;28;20025;-73
2022/04/21 11:48:44;;;;;;;6.38;2.90;;;19.20;28.10;;;;;;5039147;28;20056;-73
2022/04/21 11:51:24;;;;;;;7.03;3.50;;;19.20;28.10;;;;;;5042847;28;20044;-73
2022/04/21 11:53:51;;;;;;;6.50;3.08;;;19.00;28.70;;;;;;5038990;28;20455;-73
2022/04/21 11:56:17;;;;;;;6.70;3.67;;;18.90;29.00;;;;;;5015700;28;20053;-73
2022/04/21 11:58:44;;;;;;;6.65;3.45;;;18.90;29.40;;;;;;5021293;28;20088;-75
2022/04/21 12:07:03;;;;;;;5.93;3.00;;;18.50;29.90;;;;;;5024412;28;20175;-73
2022/04/21 12:09:35;;;;;;;6.40;3.75;;;18.60;29.50;;;;;;5041746;28;20029;-73
2022/04/21 12:12:04;;;;;;;8.00;3.90;;;18.30;30.10;;;;;;5006231;28;20124;-73
2022/04/21 12:14:31;;;;;;;5.15;2.38;;;18.50;30.10;;;;;;5028194;28;20021;-74
2022/04/21 12:17:16;;;;;;;5.18;2.53;;;18.60;30.00;;;;;;5027396;28;20084;-73
2022/04/21 12:19:44;;;;;;;7.72;2.50;;;18.70;30.60;;;;;;5029449;28;20505;-73
2022/04/21 12:22:34;;;;;;;5.47;2.60;;;18.60;29.50;;;;;;5032787;28;20037;-74
2022/04/21 12:25:01;;;;;;;4.93;2.10;;;18.60;30.10;;;;;;5027900;28;20375;-73
2022/04/21 12:27:34;;;;;;;;;;;18.70;29.80;;;;;;5048031;28;20041;-73
2022/04/21 12:30:20;;;;;;;4.85;2.10;;;18.80;29.00;;;;;;5018586;28;20421;-74
2022/04/21 12:32:49;;;;;;;3.57;1.73;;;19.00;29.20;;;;;;5028953;28;20037;-73
2022/04/21 12:35:16;;;;;;;8.32;2.35;;;18.80;29.50;;;;;;5019534;28;20091;-73
2022/04/21 12:40:47;;;;;;;4.32;2.00;;;19.40;29.20;;;;;;5037121;28;20625;-73
2022/04/21 12:43:14;;;;;;;5.43;2.03;;;19.90;28.90;;;;;;5051059;28;20052;-75
2022/04/21 12:45:40;;;;;;;5.10;2.47;;;19.90;28.40;;;;;;5035524;28;20501;-73
2022/04/21 12:48:21;;;;;;;;;;;19.80;28.80;;;;;;5053515;28;20041;-74
2022/04/21 12:50:47;;;;;;;14.30;5.63;;;19.50;28.70;;;;;;5026856;28;20381;-73
2022/04/21 12:53:42;;;;;;;3.70;1.70;;;19.40;29.10;;;;;;5028818;28;20040;-74
2022/04/21 12:56:30;;;;;;;3.65;1.67;;;19.20;29.00;;;;;;5026632;28;20041;-74
2022/04/21 12:58:56;;;;;;;4.03;1.65;;;19.10;29.10;;;;;;5036882;28;20033;-73
2022/04/21 13:01:22;;;;;;;25.52;4.28;;;19.10;29.00;;;;;;5048764;28;20033;-75
2022/04/21 13:03:48;;;;;;;10.57;3.35;;;19.10;29.60;;;;;;5052284;28;20045;-73
2022/04/21 13:06:27;;;;;;;4.60;2.00;;;19.20;29.60;;;;;;5027160;28;20040;-73
2022/04/21 13:08:54;;;;;;;4.28;1.83;;;19.40;29.10;;;;;;5025564;28;20029;-72
2022/04/21 13:11:20;;;;;;;5.40;2.58;;;19.80;28.70;;;;;;5030216;28;20048;-74
2022/04/21 13:13:46;;;;;;;4.10;1.85;;;20.30;28.50;;;;;;5042914;28;20389;-74
2022/04/21 13:16:12;;;;;;;4.15;1.88;;;20.50;28.00;;;;;;5051395;28;20094;-74
2022/04/21 13:18:38;;;;;;;5.22;2.22;;;21.00;27.80;;;;;;5029728;28;20025;-73
2022/04/21 13:23:49;;;;;;;10.50;2.67;;;22.60;25.70;;;;;;5022873;28;20095;-74
2022/04/21 13:26:15;;;;;;;;;;;23.00;25.40;;;;;;5051818;28;20027;-73
2022/04/21 13:28:41;;;;;;;7.10;1.83;;;23.90;25.00;;;;;;5035901;28;19917;-74
2022/04/21 13:33:51;;;;;;;5.50;1.50;;;24.10;24.70;;;;;;5051779;28;19927;-73
2022/04/21 13:36:17;;;;;;;;;;;24.80;23.20;;;;;;5052590;28;20087;-74
2022/04/21 13:38:44;;;;;;;10.07;1.95;;;26.30;22.70;;;;;;5040353;28;20358;-74
2022/04/21 13:41:11;;;;;;;7.90;2.13;;;27.90;20.50;;;;;;5028900;28;20082;-73
2022/04/21 13:43:37;;;;;;;4.30;1.90;;;29.20;19.50;;;;;;5029510;28;20075;-74
2022/04/21 13:46:03;;;;;;;5.82;1.70;;;30.40;17.70;;;;;;5033449;28;20041;-73
2022/04/21 13:48:29;;;;;;;5.50;2.22;;;30.40;17.20;;;;;;5052335;28;20045;-74
2022/04/21 13:50:55;;;;;;;3.72;1.65;;;30.40;18.30;;;;;;5043815;28;20017;-74
2022/04/21 13:53:21;;;;;;;3.40;1.55;;;31.10;17.60;;;;;;5030830;28;20037;-76
2022/04/21 13:55:49;;;;;;;5.78;1.70;;;31.70;16.50;;;;;;5034924;28;20074;-74
2022/04/21 13:58:18;;;;;;;4.72;1.58;;;30.90;16.80;;;;;;5051033;28;20021;-75
2022/04/21 14:00:45;;;;;;;11.23;2.55;;;30.00;17.70;;;;;;5049392;28;20044;-74
2022/04/21 14:03:12;;;;;;;6.43;2.28;;;29.10;18.70;;;;;;5040881;28;20387;-74
2022/04/21 14:05:39;;;;;;;4.88;1.80;;;28.10;18.90;;;;;;5028762;28;20072;-73
2022/04/21 14:08:07;;;;;;;4.63;1.98;;;27.10;19.60;;;;;;5016460;28;20040;-74
2022/04/21 14:10:33;;;;;;;4.25;1.67;;;26.10;20.50;;;;;;5026197;28;20494;-74